createdAt,value
2018-10-19T00:01:39.233Z,101729.15
2018-10-19T00:04:08.910Z,101736.88
2018-10-19T00:06:39.024Z,101738.34
2018-10-19T00:09:10.408Z,101733.89
2018-10-19T00:11:40.207Z,101736.59
2018-10-19T00:14:10.031Z,101731.03
2018-10-19T00:16:39.795Z,101735.29
2018-10-19T00:19:09.844Z,101731.58
2018-10-19T00:21:39.589Z,101727.26
2018-10-19T00:24:09.356Z,101726.84
2018-10-19T00:26:39.211Z,101723.36
2018-10-19T00:29:09.028Z,101724.86
2018-10-19T00:31:39.186Z,101722.16
2018-10-19T00:34:09.176Z,101721.08
2018-10-19T00:36:39.328Z,101717.89
2018-10-19T00:39:11.430Z,101721.48
2018-10-19T00:41:41.712Z,101712.61
2018-10-19T00:44:11.851Z,101717.63
2018-10-19T00:46:41.555Z,101723.38
2018-10-19T00:49:11.303Z,101716.61
2018-10-19T00:51:41.189Z,101713.73
2018-10-19T00:54:10.967Z,101713.86
2018-10-19T00:56:40.775Z,101717.50
2018-10-19T00:59:10.654Z,101719.38
2018-10-19T01:01:40.383Z,101716.11
2018-10-19T01:04:10.150Z,101714.23
2018-10-19T01:06:39.905Z,101720.50
2018-10-19T01:09:10.335Z,101722.06
2018-10-19T01:11:40.158Z,101724.08
2018-10-19T01:14:09.961Z,101723.02
2018-10-19T01:16:39.864Z,101719.39
2018-10-19T01:19:09.645Z,101719.27
2018-10-19T01:21:39.393Z,101716.48
2018-10-19T01:24:09.235Z,101717.09
2018-10-19T01:26:39.021Z,101715.09
2018-10-19T01:29:08.811Z,101717.57
2018-10-19T01:31:39.960Z,101709.56
2018-10-19T01:34:09.992Z,101712.98
2018-10-19T01:36:43.259Z,101719.05
2018-10-19T01:39:13.681Z,101716.20
2018-10-19T01:41:43.973Z,101715.18
2018-10-19T01:44:13.672Z,101716.37
2018-10-19T01:46:50.444Z,101718.55
2018-10-19T01:49:20.869Z,101726.60
2018-10-19T01:51:50.587Z,101733.66
2018-10-19T01:54:20.303Z,101731.02
2018-10-19T01:56:50.015Z,101728.81
2018-10-19T01:59:19.743Z,101727.28
2018-10-19T02:01:49.501Z,101734.11
2018-10-19T02:04:19.279Z,101726.13
2018-10-19T02:06:49.134Z,101723.62
2018-10-19T02:09:18.821Z,101727.33
2018-10-19T02:11:48.592Z,101724.73
2018-10-19T02:14:18.400Z,101722.52
2018-10-19T02:16:48.225Z,101723.73
2018-10-19T02:19:18.077Z,101730.59
2018-10-19T02:21:47.831Z,101725.88
2018-10-19T02:24:17.572Z,101721.68
2018-10-19T02:26:47.334Z,101725.27
2018-10-19T02:29:17.112Z,101725.80
2018-10-19T02:31:46.887Z,101723.36
2018-10-19T02:34:16.657Z,101719.69
2018-10-19T02:36:46.414Z,101722.97
2018-10-19T02:39:16.218Z,101724.31
2018-10-19T02:41:46.047Z,101720.88
2018-10-19T02:44:15.760Z,101723.02
2018-10-19T02:46:45.642Z,101723.78
2018-10-19T02:49:15.336Z,101729.91
2018-10-19T02:51:45.192Z,101723.84
2018-10-19T02:54:14.958Z,101721.75
2018-10-19T02:56:44.882Z,101724.11
2018-10-19T02:59:14.716Z,101722.55
2018-10-19T03:01:44.558Z,101723.64
2018-10-19T03:04:14.310Z,101722.95
2018-10-19T03:06:44.147Z,101714.72
2018-10-19T03:09:13.906Z,101720.64
2018-10-19T03:11:43.700Z,101718.17
2018-10-19T03:14:13.414Z,101728.06
2018-10-19T03:16:43.139Z,101719.23
2018-10-19T03:19:12.843Z,101725.52
2018-10-19T03:21:43.021Z,101726.87
2018-10-19T03:24:12.774Z,101737.39
2018-10-19T03:26:42.637Z,101734.83
2018-10-19T03:29:12.442Z,101724.34
2018-10-19T03:31:42.096Z,101730.85
2018-10-19T03:34:11.797Z,101732.73
2018-10-19T03:36:41.494Z,101726.62
2018-10-19T03:39:11.389Z,101725.25
2018-10-19T03:41:41.062Z,101732.15
2018-10-19T03:44:10.904Z,101734.46
2018-10-19T03:46:40.729Z,101737.93
2018-10-19T03:49:10.489Z,101741.31
2018-10-19T03:51:40.204Z,101740.08
2018-10-19T03:54:10.194Z,101739.45
2018-10-19T03:56:39.939Z,101749.45
2018-10-19T03:59:09.723Z,101749.28
2018-10-19T04:01:39.396Z,101746.81
2018-10-19T04:04:09.182Z,101741.97
2018-10-19T04:06:38.922Z,101744.56
2018-10-19T04:09:12.425Z,101748.44
2018-10-19T04:11:42.563Z,101745.59
2018-10-19T04:14:13.036Z,101747.31
2018-10-19T04:16:42.773Z,101743.38
2018-10-19T04:19:13.210Z,101743.95
2018-10-19T04:21:43.005Z,101744.24
2018-10-19T04:24:12.824Z,101743.83
2018-10-19T04:26:42.536Z,101740.70
2018-10-19T04:29:12.312Z,101746.70
2018-10-19T04:31:42.117Z,101741.09
2018-10-19T04:34:12.026Z,101740.13
2018-10-19T04:36:41.748Z,101743.52
2018-10-19T04:39:11.643Z,101739.92
2018-10-19T04:41:41.404Z,101737.88
2018-10-19T04:44:11.130Z,101736.97
2018-10-19T04:46:41.437Z,101741.36
2018-10-19T04:49:11.163Z,101738.87
2018-10-19T04:51:40.977Z,101739.89
2018-10-19T04:54:10.781Z,101745.43
2018-10-19T04:56:40.585Z,101745.78
2018-10-19T04:59:10.573Z,101746.05
2018-10-19T05:01:40.282Z,101749.33
2018-10-19T05:04:10.241Z,101757.41
2018-10-19T05:06:40.090Z,101750.80
2018-10-19T05:09:11.680Z,101752.78
2018-10-19T05:11:41.549Z,101756.63
2018-10-19T05:14:11.409Z,101750.52
2018-10-19T05:16:41.128Z,101757.09
2018-10-19T05:19:11.157Z,101751.78
2018-10-19T05:21:40.933Z,101761.53
2018-10-19T05:24:10.814Z,101750.03
2018-10-19T05:26:40.782Z,101757.05
2018-10-19T05:29:10.702Z,101752.28
2018-10-19T05:31:41.108Z,101748.41
2018-10-19T05:34:10.844Z,101753.91
2018-10-19T05:36:40.664Z,101743.43
2018-10-19T05:39:10.737Z,101757.55
2018-10-19T05:41:40.718Z,101759.86
2018-10-19T05:44:10.475Z,101759.59
2018-10-19T05:46:40.293Z,101762.50
2018-10-19T05:49:10.266Z,101763.23
2018-10-19T05:51:40.124Z,101761.20
2018-10-19T05:54:09.890Z,101770.62
2018-10-19T05:56:39.644Z,101768.03
2018-10-19T05:59:09.371Z,101770.16
2018-10-19T06:01:39.062Z,101767.30
2018-10-19T06:04:08.808Z,101763.38
2018-10-19T06:06:38.794Z,101767.53
2018-10-19T06:09:10.114Z,101764.38
2018-10-19T06:11:40.335Z,101771.09
2018-10-19T06:14:10.655Z,101770.61
2018-10-19T06:16:40.632Z,101767.38
2018-10-19T06:19:11.217Z,101774.34
2018-10-19T06:21:41.138Z,101782.29
2018-10-19T06:24:10.825Z,101782.64
2018-10-19T06:26:40.730Z,101782.91
2018-10-19T06:29:10.449Z,101788.67
2018-10-19T06:31:40.182Z,101788.56
2018-10-19T06:34:10.090Z,101790.03
2018-10-19T06:36:39.870Z,101790.13
2018-10-19T06:39:11.513Z,101794.25
2018-10-19T06:41:41.448Z,101796.33
2018-10-19T06:44:11.241Z,101801.63
2018-10-19T06:46:41.260Z,101802.13
2018-10-19T06:49:11.175Z,101800.29
2018-10-19T06:51:40.923Z,101805.41
2018-10-19T06:54:10.836Z,101798.89
2018-10-19T06:56:40.795Z,101787.98
2018-10-19T06:59:10.672Z,101792.23
2018-10-19T07:01:40.330Z,101799.30
2018-10-19T07:04:10.071Z,101797.39
2018-10-19T07:06:39.829Z,101802.25
2018-10-19T07:09:09.609Z,101801.28
2018-10-19T07:11:39.342Z,101800.08
2018-10-19T07:14:09.253Z,101803.69
2018-10-19T07:16:38.897Z,101801.91
2018-10-19T07:19:08.714Z,101805.80
2018-10-19T07:21:38.640Z,101806.19
2018-10-19T07:24:08.553Z,101809.84
2018-10-19T07:26:38.429Z,101806.34
2018-10-19T07:29:08.242Z,101804.30
2018-10-19T07:31:38.168Z,101801.82
2018-10-19T07:34:07.959Z,101807.64
2018-10-19T07:36:37.683Z,101810.14
2018-10-19T07:39:09.349Z,101813.05
2018-10-19T07:41:39.096Z,101815.48
2018-10-19T07:44:08.950Z,101815.39
2018-10-19T07:46:38.778Z,101812.93
2018-10-19T07:49:08.552Z,101812.89
2018-10-19T07:51:38.223Z,101818.00
2018-10-19T07:54:07.972Z,101820.92
2018-10-19T07:56:37.769Z,101826.30
2018-10-19T07:59:08.329Z,101824.14
2018-10-19T08:01:38.406Z,101828.22
2018-10-19T08:04:08.394Z,101825.53
2018-10-19T08:06:38.223Z,101833.50
2018-10-19T08:09:11.067Z,101839.45
2018-10-19T08:11:40.899Z,101844.02
2018-10-19T08:14:10.640Z,101843.70
2018-10-19T08:16:40.296Z,101845.31
2018-10-19T08:19:10.000Z,101842.95
2018-10-19T08:21:40.906Z,101843.24
2018-10-19T08:24:10.627Z,101846.50
2018-10-19T08:26:40.409Z,101840.06
2018-10-19T08:29:10.241Z,101836.63
2018-10-19T08:31:39.901Z,101848.34
2018-10-19T08:34:09.615Z,101845.95
2018-10-19T08:36:39.384Z,101847.17
2018-10-19T08:39:09.406Z,101844.59
2018-10-19T08:41:39.171Z,101840.22
2018-10-19T08:44:08.882Z,101845.14
2018-10-19T08:46:39.425Z,101848.80
2018-10-19T08:49:10.951Z,101847.80
2018-10-19T08:51:41.473Z,101850.83
2018-10-19T08:54:11.422Z,101853.70
2018-10-19T08:56:41.527Z,101852.45
2018-10-19T08:59:11.334Z,101855.57
2018-10-19T09:01:40.983Z,101858.91
2018-10-19T09:04:10.937Z,101857.95
2018-10-19T09:06:40.575Z,101856.17
2018-10-19T09:09:11.821Z,101852.70
2018-10-19T09:11:42.020Z,101862.41
2018-10-19T09:14:28.252Z,101859.38
2018-10-19T09:16:58.085Z,101861.80
2018-10-19T09:19:27.805Z,101852.77
2018-10-19T09:21:57.576Z,101852.38
2018-10-19T09:24:27.550Z,101845.39
2018-10-19T09:26:57.264Z,101844.00
2018-10-19T09:29:27.090Z,101847.11
2018-10-19T09:31:56.799Z,101847.51
2018-10-19T09:34:26.527Z,101850.95
2018-10-19T09:36:56.440Z,101840.78
2018-10-19T09:39:26.130Z,101845.21
2018-10-19T09:41:56.009Z,101842.44
2018-10-19T09:44:25.713Z,101836.19
2018-10-19T09:46:55.470Z,101843.89
2018-10-19T09:49:25.252Z,101843.31
2018-10-19T09:51:55.022Z,101844.36
2018-10-19T09:54:24.735Z,101843.67
2018-10-19T09:56:54.451Z,101838.59
2018-10-19T09:59:24.166Z,101842.96
2018-10-19T10:01:53.848Z,101845.70
2018-10-19T10:04:23.559Z,101831.59
2018-10-19T10:06:53.313Z,101833.81
2018-10-19T10:09:23.015Z,101830.53
2018-10-19T10:11:52.755Z,101827.98
2018-10-19T10:14:22.658Z,101835.06
2018-10-19T10:16:52.626Z,101835.28
2018-10-19T10:19:22.336Z,101838.29
2018-10-19T10:21:53.070Z,101834.91
2018-10-19T10:24:22.906Z,101829.86
2018-10-19T10:26:52.781Z,101825.14
2018-10-19T10:29:22.588Z,101816.91
2018-10-19T10:31:52.377Z,101813.50
2018-10-19T10:34:22.191Z,101817.50
2018-10-19T10:36:51.925Z,101810.86
2018-10-19T10:39:21.766Z,101811.78
2018-10-19T10:41:51.472Z,101807.95
2018-10-19T10:44:21.839Z,101802.42
2018-10-19T10:46:51.613Z,101802.52
2018-10-19T10:49:21.277Z,101802.50
2018-10-19T10:51:50.997Z,101801.91
2018-10-19T10:54:20.825Z,101801.55
2018-10-19T10:56:50.628Z,101804.02
2018-10-19T10:59:20.461Z,101790.24
2018-10-19T11:01:50.238Z,101787.53
2018-10-19T11:04:19.955Z,101792.64
2018-10-19T11:06:49.803Z,101790.81
2018-10-19T11:09:19.540Z,101788.27
2018-10-19T11:11:49.299Z,101777.64
2018-10-19T11:14:19.046Z,101782.80
2018-10-19T11:16:48.771Z,101783.62
2018-10-19T11:19:18.579Z,101777.59
2018-10-19T11:21:48.465Z,101781.23
2018-10-19T11:24:18.293Z,101776.67
2018-10-19T11:26:48.057Z,101776.07
2018-10-19T11:29:17.765Z,101776.27
2018-10-19T11:31:47.432Z,101775.84
2018-10-19T11:34:17.224Z,101778.02
2018-10-19T11:36:46.865Z,101776.83
2018-10-19T11:39:16.653Z,101774.90
2018-10-19T11:41:46.477Z,101771.33
2018-10-19T11:44:16.149Z,101772.06
2018-10-19T11:46:45.941Z,101775.00
2018-10-19T11:49:15.847Z,101769.08
2018-10-19T11:51:45.480Z,101767.39
2018-10-19T11:54:15.242Z,101772.98
2018-10-19T11:56:44.932Z,101771.52
2018-10-19T11:59:14.716Z,101762.73
2018-10-19T12:01:44.541Z,101762.11
2018-10-19T12:04:14.349Z,101762.91
2018-10-19T12:06:44.028Z,101762.30
2018-10-19T12:09:13.717Z,101763.48
2018-10-19T12:11:43.510Z,101765.86
2018-10-19T12:14:16.180Z,101758.05
2018-10-19T12:16:46.058Z,101764.14
2018-10-19T12:19:15.785Z,101755.41
2018-10-19T12:21:45.493Z,101754.34
2018-10-19T12:24:15.378Z,101752.37
2018-10-19T12:26:45.090Z,101752.30
2018-10-19T12:29:15.444Z,101749.95
2018-10-19T12:31:45.351Z,101748.28
2018-10-19T12:34:15.117Z,101746.19
2018-10-19T12:36:44.840Z,101736.73
2018-10-19T12:39:14.620Z,101738.93
2018-10-19T12:41:44.365Z,101741.69
2018-10-19T12:44:14.027Z,101741.08
2018-10-19T12:47:00.486Z,101743.16
2018-10-19T12:49:30.348Z,101737.88
2018-10-19T12:52:00.071Z,101739.66
2018-10-19T12:54:29.861Z,101739.95
2018-10-19T12:56:59.747Z,101744.19
2018-10-19T12:59:29.650Z,101733.62
2018-10-19T13:01:59.519Z,101737.62
2018-10-19T13:04:29.222Z,101736.52
2018-10-19T13:06:59.142Z,101728.50
2018-10-19T13:09:28.769Z,101727.41
2018-10-19T13:11:58.709Z,101721.78
2018-10-19T13:14:28.416Z,101722.11
2018-10-19T13:16:58.214Z,101721.80
2018-10-19T13:19:27.941Z,101716.02
2018-10-19T13:21:57.790Z,101709.67
2018-10-19T13:24:27.527Z,101707.05
2018-10-19T13:26:57.358Z,101708.22
2018-10-19T13:29:27.070Z,101698.73
2018-10-19T13:31:56.797Z,101699.20
2018-10-19T13:34:26.590Z,101698.09
2018-10-19T13:36:56.337Z,101694.66
2018-10-19T13:39:26.188Z,101690.42
2018-10-19T13:41:56.017Z,101710.10
2018-10-19T13:44:25.831Z,101706.15
2018-10-19T13:46:55.667Z,101693.31
2018-10-19T13:49:25.486Z,101691.80
2018-10-19T13:51:55.226Z,101694.75
2018-10-19T13:54:25.134Z,101696.08
2018-10-19T13:56:54.890Z,101696.05
2018-10-19T13:59:24.567Z,101694.00
2018-10-19T14:01:54.283Z,101688.88
2018-10-19T14:04:24.088Z,101682.66
2018-10-19T14:06:53.828Z,101682.80
2018-10-19T14:09:23.562Z,101682.76
2018-10-19T14:11:53.474Z,101678.55
2018-10-19T14:14:23.217Z,101668.94
2018-10-19T14:16:53.072Z,101667.08
2018-10-19T14:19:22.850Z,101670.42
2018-10-19T14:21:52.641Z,101669.70
2018-10-19T14:24:22.395Z,101673.66
2018-10-19T14:26:52.130Z,101666.88
2018-10-19T14:29:21.841Z,101666.89
2018-10-19T14:31:51.570Z,101667.75
2018-10-19T14:34:21.357Z,101665.97
2018-10-19T14:36:51.169Z,101662.34
2018-10-19T14:39:20.893Z,101663.81
2018-10-19T14:41:50.628Z,101664.20
2018-10-19T14:44:20.567Z,101666.80
2018-10-19T14:46:50.341Z,101659.03
2018-10-19T14:49:20.247Z,101662.58
2018-10-19T14:51:50.103Z,101662.55
2018-10-19T14:54:19.815Z,101665.18
2018-10-19T14:56:49.618Z,101667.81
2018-10-19T14:59:19.585Z,101665.18
2018-10-19T15:01:49.429Z,101667.39
2018-10-19T15:04:19.125Z,101673.11
2018-10-19T15:06:49.061Z,101668.27
2018-10-19T15:09:18.803Z,101666.10
2018-10-19T15:11:48.865Z,101665.59
2018-10-19T15:14:18.228Z,101669.53
2018-10-19T15:16:48.191Z,101672.61
2018-10-19T15:19:17.894Z,101671.25
2018-10-19T15:21:47.732Z,101673.84
2018-10-19T15:24:17.591Z,101676.03
2018-10-19T15:26:47.193Z,101685.20
2018-10-19T15:29:16.970Z,101677.79
2018-10-19T15:31:46.583Z,101676.89
2018-10-19T15:34:16.283Z,101681.20
2018-10-19T15:36:46.240Z,101679.01
2018-10-19T15:39:16.090Z,101682.95
2018-10-19T15:41:45.869Z,101686.02
2018-10-19T15:44:15.652Z,101689.47
2018-10-19T15:46:45.468Z,101697.30
2018-10-19T15:49:15.193Z,101699.05
2018-10-19T15:51:44.913Z,101700.33
2018-10-19T15:54:14.849Z,101711.69
2018-10-19T15:56:44.631Z,101704.61
2018-10-19T15:59:14.282Z,101701.14
2018-10-19T16:01:44.093Z,101699.78
2018-10-19T16:04:13.805Z,101712.41
2018-10-19T16:06:43.670Z,101708.02
2018-10-19T16:09:14.782Z,101709.27
2018-10-19T16:11:45.009Z,101720.69
2018-10-19T16:14:14.867Z,101715.78
2018-10-19T16:16:44.664Z,101714.36
2018-10-19T16:19:14.405Z,101716.45
2018-10-19T16:21:44.194Z,101712.02
2018-10-19T16:24:14.047Z,101720.77
2018-10-19T16:26:43.726Z,101721.17
2018-10-19T16:29:13.457Z,101723.69
2018-10-19T16:31:43.196Z,101724.02
2018-10-19T16:34:12.910Z,101722.30
2018-10-19T16:36:42.756Z,101725.84
2018-10-19T16:39:13.735Z,101732.31
2018-10-19T16:41:43.373Z,101731.48
2018-10-19T16:44:13.062Z,101737.59
2018-10-19T16:46:42.888Z,101743.19
2018-10-19T16:49:12.604Z,101751.92
2018-10-19T16:51:42.333Z,101742.20
2018-10-19T16:54:12.084Z,101748.63
2018-10-19T16:56:41.775Z,101751.17
2018-10-19T16:59:11.504Z,101748.51
2018-10-19T17:01:41.289Z,101754.53
2018-10-19T17:04:11.117Z,101759.58
2018-10-19T17:06:40.802Z,101758.53
2018-10-19T17:09:13.514Z,101756.14
2018-10-19T17:11:43.590Z,101752.01
2018-10-19T17:14:13.313Z,101754.95
2018-10-19T17:16:43.105Z,101752.39
2018-10-19T17:19:12.998Z,101754.67
2018-10-19T17:21:42.799Z,101756.70
2018-10-19T17:24:12.743Z,101762.58
2018-10-19T17:26:42.484Z,101762.97
2018-10-19T17:29:12.388Z,101771.02
2018-10-19T17:31:42.197Z,101783.71
2018-10-19T17:34:12.105Z,101788.20
2018-10-19T17:36:41.884Z,101797.69
2018-10-19T17:39:12.220Z,101803.63
2018-10-19T17:41:41.891Z,101807.38
2018-10-19T17:44:11.663Z,101810.56
2018-10-19T17:46:41.414Z,101812.28
2018-10-19T17:49:11.371Z,101817.38
2018-10-19T17:51:41.209Z,101826.00
2018-10-19T17:54:11.047Z,101819.97
2018-10-19T17:56:41.654Z,101822.00
2018-10-19T17:59:11.729Z,101828.39
2018-10-19T18:01:41.487Z,101832.00
2018-10-19T18:04:11.297Z,101838.47
2018-10-19T18:06:41.181Z,101845.72
2018-10-19T18:09:12.573Z,101852.70
2018-10-19T18:11:42.661Z,101851.39
2018-10-19T18:14:12.821Z,101856.68
2018-10-19T18:16:42.987Z,101853.44
2018-10-19T18:19:12.789Z,101855.16
2018-10-19T18:21:42.830Z,101855.66
2018-10-19T18:24:12.555Z,101858.84
2018-10-19T18:26:42.405Z,101865.39
2018-10-19T18:29:12.454Z,101862.41
2018-10-19T18:31:42.206Z,101861.52
2018-10-19T18:34:12.025Z,101863.72
2018-10-19T18:36:42.008Z,101871.55
2018-10-19T18:39:13.681Z,101864.14
2018-10-19T18:41:44.279Z,101859.73
2018-10-19T18:44:14.249Z,101860.53
2018-10-19T18:46:44.465Z,101869.65
2018-10-19T18:49:14.282Z,101867.86
2018-10-19T18:51:44.195Z,101866.98
2018-10-19T18:54:13.977Z,101867.42
2018-10-19T18:56:43.953Z,101872.20
2018-10-19T18:59:13.767Z,101871.70
2018-10-19T19:01:43.480Z,101877.73
2018-10-19T19:04:13.318Z,101879.90
2018-10-19T19:06:43.183Z,101880.34
2018-10-19T19:09:14.501Z,101883.44
2018-10-19T19:11:44.446Z,101885.48
2018-10-19T19:14:14.423Z,101892.30
2018-10-19T19:16:44.341Z,101891.19
2018-10-19T19:19:14.144Z,101891.41
2018-10-19T19:21:43.997Z,101893.31
2018-10-19T19:24:19.089Z,101889.10
2018-10-19T19:26:48.860Z,101888.39
2018-10-19T19:29:18.739Z,101894.56
2018-10-19T19:31:48.678Z,101895.06
2018-10-19T19:34:33.334Z,101894.20
2018-10-19T19:37:03.171Z,101896.20
2018-10-19T19:39:33.099Z,101889.38
2018-10-19T19:42:08.757Z,101902.73
2018-10-19T19:44:38.625Z,101901.42
2018-10-19T19:47:12.783Z,101898.35
2018-10-19T19:49:42.554Z,101897.11
2018-10-19T19:52:12.346Z,101902.34
2018-10-19T19:54:42.158Z,101891.94
2018-10-19T19:57:12.972Z,101897.23
2018-10-19T19:59:43.645Z,101900.44
2018-10-19T20:02:14.279Z,101905.56
2018-10-19T20:04:44.252Z,101909.14
2018-10-19T20:07:14.107Z,101909.16
2018-10-19T20:09:43.888Z,101914.00
2018-10-19T20:12:13.714Z,101908.55
2018-10-19T20:14:43.532Z,101904.21
2018-10-19T20:17:13.941Z,101910.70
2018-10-19T20:19:43.700Z,101910.17
2018-10-19T20:22:13.499Z,101910.44
2018-10-19T20:24:43.393Z,101911.23
2018-10-19T20:27:13.257Z,101905.55
2018-10-19T20:29:43.045Z,101900.05
2018-10-19T20:32:12.877Z,101902.30
2018-10-19T20:34:42.549Z,101905.81
2018-10-19T20:37:12.295Z,101912.88
2018-10-19T20:39:42.025Z,101908.70
2018-10-19T20:42:12.029Z,101915.43
2018-10-19T20:44:41.856Z,101911.22
2018-10-19T20:47:11.749Z,101915.78
2018-10-19T20:49:41.429Z,101910.20
2018-10-19T20:52:11.178Z,101916.33
2018-10-19T20:54:40.923Z,101917.23
2018-10-19T20:57:10.690Z,101913.17
2018-10-19T20:59:40.417Z,101918.88
2018-10-19T21:02:10.341Z,101928.17
2018-10-19T21:04:40.266Z,101922.77
2018-10-19T21:07:10.059Z,101929.55
2018-10-19T21:09:39.805Z,101931.52
2018-10-19T21:12:09.631Z,101933.62
2018-10-19T21:14:39.422Z,101932.39
2018-10-19T21:17:09.211Z,101930.03
2018-10-19T21:19:38.909Z,101937.16
2018-10-19T21:22:08.858Z,101936.30
2018-10-19T21:24:38.693Z,101938.95
2018-10-19T21:27:08.708Z,101943.69
2018-10-19T21:29:38.448Z,101936.94
2018-10-19T21:32:08.634Z,101942.63
2018-10-19T21:34:38.367Z,101948.20
2018-10-19T21:37:08.147Z,101943.04
2018-10-19T21:42:03.730Z,101951.11
2018-10-19T21:44:33.597Z,101954.34
2018-10-19T21:47:03.465Z,101951.55
2018-10-19T21:49:33.322Z,101951.72
2018-10-19T21:52:03.090Z,101957.08
2018-10-19T21:54:33.000Z,101962.02
2018-10-19T21:57:02.773Z,101961.97
2018-10-19T21:59:32.585Z,101958.42
2018-10-19T22:02:02.426Z,101957.12
2018-10-19T22:04:32.154Z,101957.96
2018-10-19T22:07:01.975Z,101965.45
2018-10-19T22:09:31.745Z,101964.91
2018-10-19T22:12:01.465Z,101969.51
2018-10-19T22:14:31.208Z,101967.99
2018-10-19T22:17:01.066Z,101969.50
2018-10-19T22:19:31.021Z,101977.53
2018-10-19T22:22:00.773Z,101980.83
2018-10-19T22:24:30.576Z,101976.92
2018-10-19T22:27:00.400Z,101976.79
2018-10-19T22:29:30.164Z,101969.22
2018-10-19T22:31:59.930Z,101972.87
2018-10-19T22:34:29.960Z,101979.09
2018-10-19T22:36:59.852Z,101989.09
2018-10-19T22:39:29.745Z,101989.86
2018-10-19T22:41:59.621Z,101990.22
2018-10-19T22:44:29.466Z,101988.51
2018-10-19T22:46:59.543Z,101989.12
2018-10-19T22:49:29.587Z,101989.95
2018-10-19T22:51:59.354Z,101990.91
2018-10-19T22:54:29.111Z,101997.17
2018-10-19T22:56:58.940Z,102007.95
2018-10-19T22:59:28.708Z,102009.66
2018-10-19T23:01:58.674Z,102006.59
2018-10-19T23:04:28.598Z,101999.87
2018-10-19T23:06:58.608Z,102006.73
2018-10-19T23:09:28.458Z,102015.52
2018-10-19T23:11:58.339Z,102016.57
2018-10-19T23:14:28.932Z,102018.83
2018-10-19T23:16:58.822Z,102017.44
2018-10-19T23:19:28.692Z,102017.93
2018-10-19T23:21:58.973Z,102015.75
2018-10-19T23:24:28.830Z,102018.26
2018-10-19T23:26:58.705Z,102025.83
2018-10-19T23:29:28.611Z,102025.23
2018-10-19T23:31:58.458Z,102033.95
2018-10-19T23:34:28.449Z,102024.07
2018-10-19T23:36:58.523Z,102023.66
2018-10-19T23:39:28.379Z,102026.60
2018-10-19T23:41:58.148Z,102031.78
2018-10-19T23:44:27.892Z,102033.45
2018-10-19T23:46:57.616Z,102039.81
2018-10-19T23:49:27.500Z,102039.45
2018-10-19T23:51:57.326Z,102042.77
2018-10-19T23:54:27.010Z,102042.66
2018-10-19T23:56:57.065Z,102039.69
2018-10-19T23:59:26.794Z,102035.89
